Time,TemperatureF,DewpointF,PressureIn,WindDirection,WindDirectionDegrees,WindSpeedMPH,WindSpeedGustMPH,Humidity,HourlyPrecipIn,Conditions,Clouds,dailyrainin,SolarRadiationWatts/m^2,SoftwareType,DateUTC
2013-05-27 00:06:00,60.0,53.0,30.16,ENE,60,0.0,-999.0,77,-99.99,,,0.00,0,weatherlink.com 1.10,2013-05-27 04:06:00,
2013-05-27 00:21:00,60.5,52.0,30.15,ENE,66,0.0,-999.0,74,-99.99,,,0.00,0,weatherlink.com 1.10,2013-05-27 04:21:00,
2013-05-27 00:36:00,60.7,52.0,30.15,SE,124,0.0,-999.0,72,-99.99,,,0.00,0,weatherlink.com 1.10,2013-05-27 04:36:00,
2013-05-27 00:51:00,60.5,51.0,30.14,SE,139,0.0,-999.0,72,-99.99,,,0.00,0,weatherlink.com 1.10,2013-05-27 04:51:00,
2013-05-27 01:06:00,60.3,51.0,30.14,SSE,164,0.0,-999.0,71,-99.99,,,0.00,0,weatherlink.com 1.10,2013-05-27 05:06:00,
2013-05-27 01:21:00,60.1,51.0,30.14,SE,141,4.0,-999.0,73,-99.99,,,0.00,0,weatherlink.com 1.10,2013-05-27 05:21:00,
2013-05-27 01:36:00,60.3,51.0,30.13,SSE,149,5.0,-999.0,71,-99.99,,,0.00,0,weatherlink.com 1.10,2013-05-27 05:36:00,
2013-05-27 01:51:00,60.4,51.0,30.13,SE,141,0.0,-999.0,70,-99.99,,,0.00,0,weatherlink.com 1.10,2013-05-27 05:51:00,
2013-05-27 02:06:00,60.4,51.0,30.12,SSE,162,2.0,-999.0,70,-99.99,,,0.00,0,weatherlink.com 1.10,2013-05-27 06:06:00,
2013-05-27 02:21:00,60.4,50.0,30.12,SE,144,0.0,-999.0,69,-99.99,,,0.00,0,weatherlink.com 1.10,2013-05-27 06:21:00,
2013-05-27 02:36:00,60.4,50.0,30.13,SSE,149,0.0,-999.0,69,-99.99,,,0.00,0,weatherlink.com 1.10,2013-05-27 06:36:00,
2013-05-27 02:51:00,60.0,51.0,30.13,East,97,0.0,-999.0,72,-99.99,,,0.00,0,weatherlink.com 1.10,2013-05-27 06:51:00,
2013-05-27 03:06:00,59.3,51.0,30.13,East,84,0.0,-999.0,75,-99.99,,,0.01,0,weatherlink.com 1.10,2013-05-27 07:06:00,
2013-05-27 03:21:00,58.6,51.0,30.13,ENE,73,0.0,-999.0,77,-99.99,,,0.02,0,weatherlink.com 1.10,2013-05-27 07:21:00,
2013-05-27 03:36:00,57.7,52.0,30.13,ESE,115,0.0,-999.0,82,-99.99,,,0.04,0,weatherlink.com 1.10,2013-05-27 07:36:00,
2013-05-27 03:51:00,56.8,52.0,30.13,East,100,0.0,-999.0,85,-99.99,,,0.07,0,weatherlink.com 1.10,2013-05-27 07:51:00,
2013-05-27 04:06:00,56.0,52.0,30.13,ESE,122,0.0,-999.0,86,-99.99,,,0.10,0,weatherlink.com 1.10,2013-05-27 08:06:00,
2013-05-27 04:21:00,55.2,51.0,30.13,East,87,0.0,-999.0,87,-99.99,,,0.16,0,weatherlink.com 1.10,2013-05-27 08:21:00,
2013-05-27 04:36:00,54.5,51.0,30.12,ENE,60,0.0,-999.0,89,-99.99,,,0.23,0,weatherlink.com 1.10,2013-05-27 08:36:00,
2013-05-27 04:51:00,53.8,51.0,30.12,East,98,2.0,-999.0,89,-99.99,,,0.27,0,weatherlink.com 1.10,2013-05-27 08:51:00,
2013-05-27 05:06:00,53.2,50.0,30.12,NE,56,0.0,-999.0,90,-99.99,,,0.31,0,weatherlink.com 1.10,2013-05-27 09:06:00,
2013-05-27 05:21:00,52.5,50.0,30.12,ENE,70,3.0,-999.0,90,-99.99,,,0.33,0,weatherlink.com 1.10,2013-05-27 09:21:00,
2013-05-27 05:36:00,51.7,49.0,30.11,SE,128,4.0,-999.0,90,-99.99,,,0.35,0,weatherlink.com 1.10,2013-05-27 09:36:00,
2013-05-27 05:51:00,51.4,49.0,30.11,ESE,118,2.0,-999.0,90,-99.99,,,0.37,0,weatherlink.com 1.10,2013-05-27 09:51:00,
2013-05-27 06:07:00,51.2,49.0,30.11,ESE,120,1.0,-999.0,91,-99.99,,,0.42,0,weatherlink.com 1.10,2013-05-27 10:07:00,
2013-05-27 06:22:00,51.1,49.0,30.12,SE,142,2.0,-999.0,92,-99.99,,,0.47,0,weatherlink.com 1.10,2013-05-27 10:22:00,
2013-05-27 06:37:00,50.9,49.0,30.12,SE,145,3.0,-999.0,92,-99.99,,,0.53,0,weatherlink.com 1.10,2013-05-27 10:37:00,
2013-05-27 06:52:00,50.7,49.0,30.11,East,93,2.0,-999.0,93,-99.99,,,0.59,0,weatherlink.com 1.10,2013-05-27 10:52:00,
2013-05-27 07:07:00,50.6,49.0,30.12,ESE,110,4.0,-999.0,93,-99.99,,,0.65,0,weatherlink.com 1.10,2013-05-27 11:07:00,
2013-05-27 07:22:00,50.4,49.0,30.11,East,97,6.0,-999.0,93,-99.99,,,0.73,5,weatherlink.com 1.10,2013-05-27 11:22:00,
2013-05-27 07:37:00,50.4,49.0,30.11,ESE,102,3.0,-999.0,94,-99.99,,,0.78,0,weatherlink.com 1.10,2013-05-27 11:37:00,
2013-05-27 07:52:00,50.6,49.0,30.12,SE,124,2.0,-999.0,94,-99.99,,,0.79,0,weatherlink.com 1.10,2013-05-27 11:52:00,
2013-05-27 08:07:00,50.8,49.0,30.11,ESE,117,4.0,-999.0,94,-99.99,,,0.79,9,weatherlink.com 1.10,2013-05-27 12:07:00,
2013-05-27 08:22:00,51.0,49.0,30.10,SE,139,2.0,-999.0,94,-99.99,,,0.79,11,weatherlink.com 1.10,2013-05-27 12:22:00,
2013-05-27 08:37:00,51.3,50.0,30.11,SE,134,4.0,-999.0,94,-99.99,,,0.80,37,weatherlink.com 1.10,2013-05-27 12:37:00,
2013-05-27 08:52:00,51.7,50.0,30.09,SE,139,4.0,-999.0,94,-99.99,,,0.80,91,weatherlink.com 1.10,2013-05-27 12:52:00,
2013-05-27 09:07:00,52.4,51.0,30.09,SE,126,6.0,-999.0,94,-99.99,,,0.80,109,weatherlink.com 1.10,2013-05-27 13:07:00,
2013-05-27 09:22:00,52.8,51.0,30.08,SSE,152,3.0,-999.0,94,-99.99,,,0.80,139,weatherlink.com 1.10,2013-05-27 13:22:00,
2013-05-27 09:37:00,53.1,51.0,30.08,SSE,154,4.0,-999.0,93,-99.99,,,0.80,65,weatherlink.com 1.10,2013-05-27 13:37:00,
2013-05-27 09:52:00,53.6,52.0,30.08,SE,135,13.0,-999.0,93,-99.99,,,0.80,120,weatherlink.com 1.10,2013-05-27 13:52:00,
2013-05-27 10:07:00,54.4,52.0,30.08,SE,138,5.0,-999.0,91,-99.99,,,0.81,155,weatherlink.com 1.10,2013-05-27 14:07:00,
2013-05-27 10:22:00,54.6,52.0,30.06,ENE,64,11.0,-999.0,91,-99.99,,,0.81,121,weatherlink.com 1.10,2013-05-27 14:22:00,
2013-05-27 10:37:00,54.9,52.0,30.06,ESE,108,4.0,-999.0,91,-99.99,,,0.81,171,weatherlink.com 1.10,2013-05-27 14:37:00,
2013-05-27 10:52:00,55.5,53.0,30.05,SE,141,3.0,-999.0,90,-99.99,,,0.81,218,weatherlink.com 1.10,2013-05-27 14:52:00,
2013-05-27 11:07:00,56.3,53.0,30.04,East,100,3.0,-999.0,89,-99.99,,,0.81,213,weatherlink.com 1.10,2013-05-27 15:07:00,
2013-05-27 11:22:00,57.1,54.0,30.04,SE,138,11.0,-999.0,88,-99.99,,,0.81,264,weatherlink.com 1.10,2013-05-27 15:22:00,
2013-05-27 11:37:00,57.5,54.0,30.03,SE,124,11.0,-999.0,87,-99.99,,,0.81,276,weatherlink.com 1.10,2013-05-27 15:37:00,
2013-05-27 11:52:00,58.2,54.0,30.03,SSE,154,5.0,-999.0,86,-99.99,,,0.81,230,weatherlink.com 1.10,2013-05-27 15:52:00,
2013-05-27 12:07:00,58.2,54.0,30.02,East,93,2.0,-999.0,85,-99.99,,,0.81,100,weatherlink.com 1.10,2013-05-27 16:07:00,
2013-05-27 12:22:00,58.3,54.0,30.07,East,92,0.0,-999.0,85,-99.99,,,0.81,58,weatherlink.com 1.10,2013-05-27 16:22:00,
2013-05-27 12:37:00,58.0,54.0,30.05,ESE,114,2.0,-999.0,87,-99.99,,,0.88,141,weatherlink.com 1.10,2013-05-27 16:37:00,
2013-05-27 12:52:00,57.1,55.0,30.04,NNE,28,0.0,-999.0,91,-99.99,,,0.97,51,weatherlink.com 1.10,2013-05-27 16:52:00,
2013-05-27 13:07:00,56.8,55.0,30.03,South,170,3.0,-999.0,92,-99.99,,,1.04,139,weatherlink.com 1.10,2013-05-27 17:07:00,
2013-05-27 13:22:00,56.9,55.0,30.02,ESE,107,7.0,-999.0,93,-99.99,,,1.07,255,weatherlink.com 1.10,2013-05-27 17:22:00,
2013-05-27 13:37:00,57.5,56.0,30.01,SE,135,1.0,-999.0,94,-99.99,,,1.07,244,weatherlink.com 1.10,2013-05-27 17:37:00,
2013-05-27 13:52:00,57.7,56.0,30.01,SE,131,1.0,-999.0,93,-99.99,,,1.07,153,weatherlink.com 1.10,2013-05-27 17:52:00,
2013-05-27 14:07:00,58.1,56.0,29.99,SE,132,3.0,-999.0,93,-99.99,,,1.07,105,weatherlink.com 1.10,2013-05-27 18:07:00,
2013-05-27 14:22:00,58.5,56.0,29.99,SE,124,2.0,-999.0,92,-99.99,,,1.07,127,weatherlink.com 1.10,2013-05-27 18:22:00,
2013-05-27 14:37:00,59.1,57.0,29.98,ESE,122,4.0,-999.0,92,-99.99,,,1.07,234,weatherlink.com 1.10,2013-05-27 18:37:00,
2013-05-27 14:52:00,59.7,57.0,29.98,ESE,122,4.0,-999.0,92,-99.99,,,1.07,148,weatherlink.com 1.10,2013-05-27 18:52:00,
2013-05-27 15:07:00,59.9,58.0,29.97,East,80,1.0,-999.0,92,-99.99,,,1.07,107,weatherlink.com 1.10,2013-05-27 19:07:00,
2013-05-27 15:22:00,60.1,58.0,29.97,SE,139,1.0,-999.0,92,-99.99,,,1.07,97,weatherlink.com 1.10,2013-05-27 19:22:00,
2013-05-27 15:37:00,60.5,58.0,29.97,SE,142,2.0,-999.0,92,-99.99,,,1.07,109,weatherlink.com 1.10,2013-05-27 19:37:00,
2013-05-27 15:52:00,60.8,59.0,29.96,ENE,74,1.0,-999.0,92,-99.99,,,1.07,102,weatherlink.com 1.10,2013-05-27 19:52:00,
2013-05-27 16:07:00,61.1,59.0,29.95,SE,134,4.0,-999.0,92,-99.99,,,1.07,47,weatherlink.com 1.10,2013-05-27 20:07:00,
2013-05-27 16:22:00,61.0,59.0,29.94,East,80,6.0,-999.0,92,-99.99,,,1.07,54,weatherlink.com 1.10,2013-05-27 20:22:00,
2013-05-27 16:37:00,61.2,59.0,29.93,SE,126,1.0,-999.0,93,-99.99,,,1.07,88,weatherlink.com 1.10,2013-05-27 20:37:00,
2013-05-27 16:53:00,61.5,60.0,29.92,ENE,68,1.0,-999.0,93,-99.99,,,1.07,83,weatherlink.com 1.10,2013-05-27 20:53:00,
2013-05-27 17:07:00,61.5,60.0,29.92,SE,141,0.0,-999.0,93,-99.99,,,1.07,72,weatherlink.com 1.10,2013-05-27 21:07:00,
2013-05-27 17:22:00,61.8,60.0,29.92,South,181,3.0,-999.0,94,-99.99,,,1.07,67,weatherlink.com 1.10,2013-05-27 21:22:00,
2013-05-27 17:49:00,62.0,60.0,29.91,SSE,155,2.0,-999.0,94,-99.99,,,1.07,81,weatherlink.com 1.10,2013-05-27 21:49:00,
2013-05-27 18:07:00,62.5,61.0,29.90,ESE,122,0.0,-999.0,94,-99.99,,,1.08,116,weatherlink.com 1.10,2013-05-27 22:07:00,
2013-05-27 18:22:00,62.9,61.0,29.89,SE,143,3.0,-999.0,94,-99.99,,,1.08,134,weatherlink.com 1.10,2013-05-27 22:22:00,
2013-05-27 18:37:00,63.4,61.0,29.89,SE,143,4.0,-999.0,93,-99.99,,,1.08,186,weatherlink.com 1.10,2013-05-27 22:37:00,
2013-05-27 18:54:00,63.9,62.0,29.89,ESE,108,1.0,-999.0,93,-99.99,,,1.08,95,weatherlink.com 1.10,2013-05-27 22:54:00,
2013-05-27 19:07:00,63.9,62.0,29.89,ESE,118,2.0,-999.0,93,-99.99,,,1.08,95,weatherlink.com 1.10,2013-05-27 23:07:00,
2013-05-27 19:22:00,63.7,62.0,29.89,South,172,0.0,-999.0,94,-99.99,,,1.08,51,weatherlink.com 1.10,2013-05-27 23:22:00,
2013-05-27 19:37:00,63.4,62.0,29.89,ESE,117,3.0,-999.0,94,-99.99,,,1.08,9,weatherlink.com 1.10,2013-05-27 23:37:00,
2013-05-27 19:52:00,63.1,62.0,29.89,SE,146,3.0,-999.0,95,-99.99,,,1.13,11,weatherlink.com 1.10,2013-05-27 23:52:00,
2013-05-27 20:07:00,62.9,62.0,29.89,ENE,74,2.0,-999.0,95,-99.99,,,1.17,0,weatherlink.com 1.10,2013-05-28 00:07:00,
2013-05-27 20:25:00,62.7,62.0,29.88,ENE,63,0.0,-999.0,96,-99.99,,,1.17,0,weatherlink.com 1.10,2013-05-28 00:25:00,
2013-05-27 20:36:00,62.6,62.0,29.89,ENE,68,2.0,-999.0,96,-99.99,,,1.18,0,weatherlink.com 1.10,2013-05-28 00:36:00,
2013-05-27 20:51:00,62.6,62.0,29.89,ENE,66,2.0,-999.0,96,-99.99,,,1.25,0,weatherlink.com 1.10,2013-05-28 00:51:00,
2013-05-27 21:06:00,62.6,62.0,29.89,SE,128,0.0,-999.0,96,-99.99,,,1.28,0,weatherlink.com 1.10,2013-05-28 01:06:00,
2013-05-27 21:21:00,62.6,62.0,29.88,SE,138,1.0,-999.0,97,-99.99,,,1.28,0,weatherlink.com 1.10,2013-05-28 01:21:00,
2013-05-27 21:36:00,63.0,62.0,29.88,SE,143,1.0,-999.0,96,-99.99,,,1.29,0,weatherlink.com 1.10,2013-05-28 01:36:00,
2013-05-27 21:51:00,62.6,62.0,29.86,East,89,1.0,-999.0,96,-99.99,,,1.30,0,weatherlink.com 1.10,2013-05-28 01:51:00,
2013-05-27 22:06:00,62.5,62.0,29.86,ENE,73,0.0,-999.0,97,-99.99,,,1.30,0,weatherlink.com 1.10,2013-05-28 02:06:00,
2013-05-27 22:21:00,62.4,61.0,29.86,NE,45,1.0,-999.0,96,-99.99,,,1.30,0,weatherlink.com 1.10,2013-05-28 02:21:00,
2013-05-27 22:36:00,62.1,61.0,29.86,NE,45,4.0,-999.0,97,-99.99,,,1.30,0,weatherlink.com 1.10,2013-05-28 02:36:00,
2013-05-27 22:51:00,62.4,62.0,29.87,NE,51,2.0,-999.0,97,-99.99,,,1.30,0,weatherlink.com 1.10,2013-05-28 02:51:00,
2013-05-27 23:06:00,62.3,62.0,29.88,NE,41,0.0,-999.0,97,-99.99,,,1.30,0,weatherlink.com 1.10,2013-05-28 03:06:00,
2013-05-27 23:26:00,61.8,61.0,29.89,SE,143,0.0,-999.0,97,-99.99,,,1.30,0,weatherlink.com 1.10,2013-05-28 03:26:00,
2013-05-27 23:37:00,62.3,62.0,29.89,South,170,2.0,-999.0,97,-99.99,,,1.30,0,weatherlink.com 1.10,2013-05-28 03:37:00,
2013-05-27 23:52:00,62.5,62.0,29.90,South,177,4.0,-999.0,97,-99.99,,,1.30,0,weatherlink.com 1.10,2013-05-28 03:52:00,